createdAt,value
2022-10-31T00:01:27.599Z,12.40
2022-10-31T00:03:55.507Z,15.32
2022-10-31T00:06:24.377Z,16.15
2022-10-31T00:08:58.006Z,13.32
2022-10-31T00:11:26.118Z,12.90
2022-10-31T00:13:53.592Z,13.75
2022-10-31T00:16:25.969Z,10.60
2022-10-31T00:18:55.532Z,9.43
2022-10-31T00:21:24.109Z,11.80
2022-10-31T00:23:51.599Z,9.40
2022-10-31T00:26:19.423Z,11.75
2022-10-31T00:28:47.139Z,11.23
2022-10-31T00:31:15.610Z,12.35
2022-10-31T00:33:43.614Z,13.18
2022-10-31T00:36:17.277Z,7.22
2022-10-31T00:38:45.993Z,10.35
2022-10-31T00:41:16.731Z,12.00
2022-10-31T00:43:44.751Z,13.02
2022-10-31T00:46:13.238Z,9.70
2022-10-31T00:48:42.082Z,9.18
2022-10-31T00:51:11.211Z,10.05
2022-10-31T00:53:40.383Z,14.13
2022-10-31T00:56:08.121Z,12.38
2022-10-31T00:58:36.026Z,11.73
2022-10-31T01:01:03.603Z,10.70
2022-10-31T01:03:33.888Z,7.63
2022-10-31T01:06:07.074Z,11.50
2022-10-31T01:08:38.232Z,13.35
2022-10-31T01:11:18.040Z,9.35
2022-10-31T01:13:46.600Z,13.82
2022-10-31T01:16:17.227Z,7.20
2022-10-31T01:18:44.668Z,10.95
2022-10-31T01:21:18.071Z,11.05
2022-10-31T01:23:45.703Z,7.18
2022-10-31T01:26:24.073Z,11.18
2022-10-31T01:28:52.996Z,12.13
2022-10-31T01:31:22.606Z,10.02
2022-10-31T01:33:50.174Z,12.68
2022-10-31T01:36:30.421Z,8.40
2022-10-31T01:39:05.440Z,6.78
2022-10-31T01:41:36.133Z,10.32
2022-10-31T01:44:24.850Z,9.90
2022-10-31T01:47:00.958Z,10.18
2022-10-31T01:49:50.082Z,8.30
2022-10-31T01:52:29.048Z,12.05
2022-10-31T01:55:02.749Z,17.75
2022-10-31T01:57:33.342Z,16.60
2022-10-31T02:00:07.777Z,15.68
2022-10-31T02:02:41.572Z,17.35
2022-10-31T02:05:17.969Z,15.95
2022-10-31T02:07:54.293Z,13.82
2022-10-31T02:10:30.577Z,10.38
2022-10-31T02:13:01.404Z,10.82
2022-10-31T02:15:31.630Z,14.98
2022-10-31T02:17:59.807Z,12.82
2022-10-31T02:20:35.069Z,15.00
2022-10-31T02:23:19.821Z,12.77
2022-10-31T02:26:05.954Z,10.98
2022-10-31T02:29:07.058Z,7.93
2022-10-31T02:32:20.489Z,16.92
2022-10-31T02:34:50.769Z,8.68
2022-10-31T02:37:52.732Z,15.02
2022-10-31T02:40:43.791Z,10.50
2022-10-31T02:44:09.610Z,8.43
2022-10-31T02:47:00.726Z,8.77
2022-10-31T02:49:41.646Z,9.95
2022-10-31T02:52:20.550Z,8.40
2022-10-31T02:54:49.997Z,8.38
2022-10-31T02:57:21.886Z,7.05
2022-10-31T02:59:52.329Z,10.73
2022-10-31T03:02:25.651Z,8.43
2022-10-31T03:05:17.110Z,13.90
2022-10-31T03:07:54.396Z,7.43
2022-10-31T03:10:41.859Z,10.07
2022-10-31T03:13:48.137Z,11.35
2022-10-31T03:16:33.004Z,8.90
2022-10-31T03:19:18.920Z,10.40
2022-10-31T03:21:54.136Z,10.18
2022-10-31T03:24:26.959Z,8.52
2022-10-31T03:26:57.958Z,7.75
2022-10-31T03:29:29.720Z,8.48
2022-10-31T03:32:04.668Z,9.88
2022-10-31T03:34:33.307Z,9.68
2022-10-31T03:37:04.866Z,11.75
2022-10-31T03:39:34.379Z,8.77
2022-10-31T03:42:15.227Z,9.20
2022-10-31T03:44:57.034Z,7.10
2022-10-31T03:47:24.759Z,8.45
2022-10-31T03:49:52.503Z,8.55
2022-10-31T03:52:35.345Z,6.60
2022-10-31T03:55:40.642Z,16.52
2022-10-31T03:58:28.394Z,9.52
2022-10-31T04:00:58.883Z,9.73
2022-10-31T04:03:35.814Z,9.23
2022-10-31T04:06:11.153Z,6.75
2022-10-31T04:08:47.860Z,7.72
2022-10-31T04:11:22.606Z,8.05
2022-10-31T04:14:09.898Z,8.20
2022-10-31T04:16:40.211Z,12.18
2022-10-31T04:19:07.853Z,7.78
2022-10-31T04:21:35.167Z,13.35
2022-10-31T04:24:02.415Z,13.25
2022-10-31T04:26:31.216Z,8.70
2022-10-31T04:28:58.896Z,9.05
2022-10-31T04:31:28.359Z,10.48
2022-10-31T04:33:55.949Z,8.85
2022-10-31T04:36:23.875Z,13.57
2022-10-31T04:38:51.262Z,13.55
2022-10-31T04:41:33.248Z,12.88
2022-10-31T04:44:03.058Z,5.88
2022-10-31T04:46:31.322Z,7.60
2022-10-31T04:49:02.634Z,10.68
2022-10-31T04:51:30.102Z,10.20
2022-10-31T04:53:58.878Z,14.40
2022-10-31T04:56:29.328Z,11.55
2022-10-31T04:58:59.749Z,8.77
2022-10-31T05:01:32.732Z,11.68
2022-10-31T05:04:01.297Z,13.88
2022-10-31T05:06:29.713Z,10.15
2022-10-31T05:08:57.822Z,13.30
2022-10-31T05:11:25.410Z,14.77
2022-10-31T05:13:54.943Z,14.30
2022-10-31T05:16:54.733Z,14.10
2022-10-31T05:19:47.966Z,22.80
2022-10-31T05:22:52.931Z,11.82
2022-10-31T05:25:24.469Z,11.23
2022-10-31T05:27:53.365Z,11.40
2022-10-31T05:30:28.854Z,14.32
2022-10-31T05:32:56.387Z,16.65
2022-10-31T05:35:36.059Z,16.73
2022-10-31T05:38:29.693Z,15.35
2022-10-31T05:41:04.274Z,15.98
2022-10-31T05:43:34.749Z,14.55
2022-10-31T05:46:05.597Z,17.38
2022-10-31T05:48:51.175Z,28.27
2022-10-31T05:54:05.635Z,24.35
2022-10-31T05:56:33.007Z,20.98
2022-10-31T05:59:00.910Z,14.60
2022-10-31T06:01:28.527Z,19.23
2022-10-31T06:03:58.251Z,9.82
2022-10-31T06:06:25.701Z,11.43
2022-10-31T06:08:53.084Z,10.07
2022-10-31T06:11:23.170Z,19.70
2022-10-31T06:14:02.661Z,15.10
2022-10-31T06:16:46.323Z,21.23
2022-10-31T06:19:42.639Z,20.40
2022-10-31T06:22:14.985Z,14.70
2022-10-31T06:24:44.272Z,17.60
2022-10-31T06:27:27.963Z,19.85
2022-10-31T06:29:55.802Z,24.73
2022-10-31T06:32:32.279Z,26.48
2022-10-31T06:34:59.629Z,23.42
2022-10-31T06:37:26.960Z,28.25
2022-10-31T06:40:01.003Z,28.83
2022-10-31T06:42:28.416Z,28.15
2022-10-31T06:44:55.880Z,18.42
2022-10-31T06:50:32.276Z,23.58
2022-10-31T06:53:01.798Z,30.92
2022-10-31T06:55:29.732Z,28.90
2022-10-31T06:58:03.135Z,43.50
2022-10-31T07:00:31.980Z,30.40
2022-10-31T07:03:07.881Z,27.95
2022-10-31T07:05:36.938Z,34.88
2022-10-31T07:08:07.915Z,35.60
2022-10-31T07:10:40.361Z,38.60
2022-10-31T07:13:15.512Z,37.88
2022-10-31T07:15:50.293Z,26.77
2022-10-31T07:18:18.000Z,22.63
2022-10-31T07:20:45.302Z,31.80
2022-10-31T07:23:13.500Z,19.63
2022-10-31T07:25:46.538Z,25.30
2022-10-31T07:28:20.800Z,41.90
2022-10-31T07:30:52.894Z,39.70
2022-10-31T07:33:23.241Z,27.45
2022-10-31T07:36:11.952Z,24.77
2022-10-31T07:38:42.275Z,25.52
2022-10-31T07:41:10.934Z,42.22
2022-10-31T07:43:42.650Z,35.50
2022-10-31T07:46:18.832Z,61.67
2022-10-31T07:51:58.237Z,59.60
2022-10-31T07:54:44.050Z,49.70
2022-10-31T07:57:11.365Z,57.60
2022-10-31T07:59:39.616Z,52.40
2022-10-31T08:02:09.924Z,53.03
2022-10-31T08:04:49.720Z,49.80
2022-10-31T08:07:38.904Z,52.50
2022-10-31T08:10:08.807Z,62.25
2022-10-31T08:12:36.379Z,50.58
2022-10-31T08:15:08.366Z,45.53
2022-10-31T08:17:37.871Z,46.92
2022-10-31T08:20:06.900Z,55.78
2022-10-31T08:22:43.655Z,46.55
2022-10-31T08:25:11.824Z,53.08
2022-10-31T08:27:39.979Z,64.68
2022-10-31T08:30:11.125Z,36.85
2022-10-31T08:32:40.928Z,45.25
2022-10-31T08:35:44.737Z,47.70
2022-10-31T08:38:37.850Z,40.90
2022-10-31T08:41:05.327Z,30.73
2022-10-31T08:43:33.465Z,37.95
2022-10-31T08:46:02.977Z,23.42
2022-10-31T08:48:30.749Z,33.20
2022-10-31T08:50:59.860Z,38.58
2022-10-31T08:53:28.872Z,30.77
2022-10-31T08:56:25.256Z,26.77
2022-10-31T08:58:55.013Z,29.90
2022-10-31T09:01:32.093Z,34.35
2022-10-31T09:03:59.663Z,39.20
2022-10-31T09:06:27.748Z,24.33
2022-10-31T09:08:55.293Z,20.00
2022-10-31T09:11:25.843Z,26.55
2022-10-31T09:16:57.111Z,23.40
2022-10-31T09:19:31.876Z,34.70
2022-10-31T09:21:59.202Z,32.40
2022-10-31T09:24:27.466Z,31.38
2022-10-31T09:26:54.767Z,22.88
2022-10-31T09:29:27.729Z,36.03
2022-10-31T09:31:59.214Z,31.48
2022-10-31T09:34:29.140Z,28.05
2022-10-31T09:37:22.279Z,23.17
2022-10-31T09:39:50.146Z,27.30
2022-10-31T09:42:36.407Z,25.67
2022-10-31T09:45:30.947Z,22.65
2022-10-31T09:48:23.284Z,21.10
2022-10-31T09:51:05.990Z,29.90
2022-10-31T09:53:53.251Z,18.77
2022-10-31T09:56:25.850Z,23.52
2022-10-31T09:59:01.852Z,35.00
2022-10-31T10:01:41.447Z,21.08
2022-10-31T10:04:30.476Z,22.20
2022-10-31T10:07:49.936Z,23.52
2022-10-31T10:10:33.770Z,27.08
2022-10-31T10:13:51.642Z,29.77
2022-10-31T10:16:51.379Z,24.63
2022-10-31T10:19:36.782Z,22.92
2022-10-31T10:22:23.074Z,25.77
2022-10-31T10:24:59.452Z,31.17
2022-10-31T10:27:53.971Z,22.63
2022-10-31T10:30:34.650Z,23.65
2022-10-31T10:33:09.632Z,23.13
2022-10-31T10:35:44.688Z,22.85
2022-10-31T10:38:18.900Z,28.00
2022-10-31T10:40:47.668Z,19.77
2022-10-31T10:43:40.417Z,20.27
2022-10-31T10:46:45.305Z,20.98
2022-10-31T10:49:20.424Z,27.73
2022-10-31T10:52:13.133Z,19.80
2022-10-31T10:55:19.943Z,25.67
2022-10-31T10:57:57.734Z,21.15
2022-10-31T11:00:32.752Z,23.58
2022-10-31T11:03:00.866Z,19.10
2022-10-31T11:05:52.485Z,20.33
2022-10-31T11:08:28.397Z,26.63
2022-10-31T11:11:07.620Z,21.45
2022-10-31T11:13:37.584Z,23.38
2022-10-31T11:16:10.217Z,36.63
2022-10-31T11:18:46.871Z,23.25
2022-10-31T11:21:28.142Z,29.05
2022-10-31T11:24:10.584Z,16.73
2022-10-31T11:26:43.092Z,19.42
2022-10-31T11:29:26.153Z,19.67
2022-10-31T11:31:58.356Z,20.00
2022-10-31T11:34:34.687Z,29.02
2022-10-31T11:37:24.805Z,21.70
2022-10-31T11:40:00.202Z,23.58
2022-10-31T11:42:31.763Z,21.52
2022-10-31T11:44:59.403Z,24.75
2022-10-31T11:47:31.197Z,18.63
2022-10-31T11:50:03.168Z,19.10
2022-10-31T11:52:33.616Z,21.42
2022-10-31T11:55:32.471Z,15.55
2022-10-31T11:58:00.241Z,16.63
2022-10-31T12:00:32.779Z,18.48
2022-10-31T12:03:24.458Z,29.90
2022-10-31T12:06:06.985Z,24.42
2022-10-31T12:08:37.400Z,24.58
2022-10-31T12:11:16.605Z,27.80
2022-10-31T12:14:16.434Z,20.25
2022-10-31T12:17:00.594Z,22.27
2022-10-31T12:20:03.001Z,27.88
2022-10-31T12:22:58.072Z,25.05
2022-10-31T12:25:55.054Z,24.30
2022-10-31T12:28:49.910Z,24.13
2022-10-31T12:31:30.591Z,25.38
2022-10-31T12:34:12.797Z,27.25
2022-10-31T12:37:04.687Z,23.83
2022-10-31T12:39:37.879Z,26.17
2022-10-31T12:42:39.700Z,28.70
2022-10-31T12:45:09.764Z,26.75
2022-10-31T12:47:44.692Z,29.70
2022-10-31T12:50:14.814Z,30.80
2022-10-31T12:53:02.435Z,35.92
2022-10-31T12:56:02.118Z,29.92
2022-10-31T12:58:41.775Z,24.08
2022-10-31T13:01:16.053Z,25.98
2022-10-31T13:04:03.062Z,36.58
2022-10-31T13:06:51.751Z,21.40
2022-10-31T13:09:31.845Z,27.90
2022-10-31T13:12:11.841Z,23.70
2022-10-31T13:14:48.711Z,31.95
2022-10-31T13:17:42.818Z,27.13
2022-10-31T13:20:25.942Z,20.15
2022-10-31T13:23:48.327Z,29.67
2022-10-31T13:26:23.861Z,22.98
2022-10-31T13:29:05.302Z,25.83
2022-10-31T13:31:32.818Z,21.40
2022-10-31T13:34:11.288Z,29.80
2022-10-31T13:37:22.637Z,25.10
2022-10-31T13:40:05.031Z,19.15
2022-10-31T13:42:47.112Z,27.10
2022-10-31T13:45:20.088Z,22.75
2022-10-31T13:48:16.786Z,18.85
2022-10-31T13:50:57.272Z,31.02
2022-10-31T13:53:52.047Z,31.83
2022-10-31T13:56:21.950Z,19.27
2022-10-31T13:59:26.685Z,23.70
2022-10-31T14:02:00.985Z,25.27
2022-10-31T14:04:38.353Z,16.85
2022-10-31T14:07:16.520Z,26.50
2022-10-31T14:09:52.761Z,17.50
2022-10-31T14:12:27.794Z,19.85
2022-10-31T14:17:29.071Z,21.98
2022-10-31T14:20:11.945Z,27.98
2022-10-31T14:22:42.881Z,20.55
2022-10-31T14:25:30.744Z,24.83
2022-10-31T14:27:59.853Z,18.58
2022-10-31T14:30:29.995Z,24.08
2022-10-31T14:33:03.545Z,25.02
2022-10-31T14:36:08.345Z,24.73
2022-10-31T14:38:44.621Z,15.77
2022-10-31T14:41:20.462Z,17.42
2022-10-31T14:44:38.686Z,24.25
2022-10-31T14:47:40.964Z,22.08
2022-10-31T14:50:33.265Z,21.70
2022-10-31T14:53:04.954Z,30.67
2022-10-31T14:55:33.124Z,22.67
2022-10-31T14:58:07.554Z,22.13
2022-10-31T15:00:37.075Z,28.33
2022-10-31T15:03:19.443Z,17.63
2022-10-31T15:05:52.494Z,19.50
2022-10-31T15:08:40.782Z,17.63
2022-10-31T15:11:16.926Z,32.47
2022-10-31T15:13:54.369Z,32.47
2022-10-31T15:19:08.329Z,23.17
2022-10-31T15:21:43.135Z,25.45
2022-10-31T15:24:19.940Z,22.05
2022-10-31T15:26:51.312Z,26.30
2022-10-31T15:29:23.750Z,26.27
2022-10-31T15:32:19.730Z,29.30
2022-10-31T15:34:47.152Z,20.67
2022-10-31T15:37:17.431Z,25.00
2022-10-31T15:39:48.519Z,22.80
2022-10-31T15:42:21.299Z,18.40
2022-10-31T15:44:54.340Z,21.80
2022-10-31T15:47:27.933Z,17.42
2022-10-31T15:49:57.033Z,15.50
2022-10-31T15:52:42.398Z,16.38
2022-10-31T15:55:16.958Z,19.33
2022-10-31T15:57:46.626Z,15.82
2022-10-31T16:00:30.553Z,19.20
2022-10-31T16:03:31.252Z,25.55
2022-10-31T16:06:05.030Z,18.63
2022-10-31T16:08:32.308Z,24.17
2022-10-31T16:11:25.156Z,21.40
2022-10-31T16:14:07.386Z,19.85
2022-10-31T16:16:41.361Z,26.95
2022-10-31T16:19:25.372Z,19.35
2022-10-31T16:22:03.482Z,28.50
2022-10-31T16:24:34.411Z,22.25
2022-10-31T16:27:07.244Z,22.38
2022-10-31T16:29:34.635Z,25.92
2022-10-31T16:32:02.182Z,28.48
2022-10-31T16:34:29.513Z,21.50
2022-10-31T16:36:56.924Z,21.65
2022-10-31T16:39:26.417Z,23.98
2022-10-31T16:41:57.125Z,27.77
2022-10-31T16:44:27.078Z,25.27
2022-10-31T16:47:10.687Z,41.25
2022-10-31T16:49:38.215Z,24.88
2022-10-31T16:52:07.006Z,26.52
2022-10-31T16:54:34.316Z,26.55
2022-10-31T16:57:03.821Z,17.75
2022-10-31T16:59:33.152Z,29.40
2022-10-31T17:02:01.781Z,31.08
2022-10-31T17:04:29.627Z,23.20
2022-10-31T17:06:57.087Z,31.40
2022-10-31T17:09:24.397Z,32.10
2022-10-31T17:11:54.333Z,29.20
2022-10-31T17:14:22.411Z,33.47
2022-10-31T17:16:50.446Z,38.53
2022-10-31T17:19:17.864Z,30.85
2022-10-31T17:21:45.550Z,33.03
2022-10-31T17:24:15.307Z,41.30
2022-10-31T17:26:43.330Z,31.75
2022-10-31T17:29:10.731Z,35.58
2022-10-31T17:31:39.546Z,41.75
2022-10-31T17:34:08.859Z,38.90
2022-10-31T17:36:36.417Z,42.85
2022-10-31T17:39:09.961Z,39.60
2022-10-31T17:41:37.372Z,41.22
2022-10-31T17:44:04.955Z,38.75
2022-10-31T17:46:32.417Z,39.53
2022-10-31T17:49:02.618Z,43.78
2022-10-31T17:51:30.114Z,57.05
2022-10-31T17:53:59.217Z,46.80
2022-10-31T17:56:26.991Z,43.00
2022-10-31T17:58:57.373Z,45.92
2022-10-31T18:01:25.150Z,53.30
2022-10-31T18:03:52.796Z,38.03
2022-10-31T18:06:21.605Z,36.58
2022-10-31T18:08:48.944Z,28.13
2022-10-31T18:11:22.248Z,45.95
2022-10-31T18:13:58.593Z,34.17
2022-10-31T18:16:26.686Z,36.83
2022-10-31T18:18:58.840Z,33.05
2022-10-31T18:21:26.708Z,31.30
2022-10-31T18:23:58.654Z,30.30
2022-10-31T18:26:27.727Z,39.22
2022-10-31T18:28:55.758Z,35.78
2022-10-31T18:31:23.411Z,32.20
2022-10-31T18:33:54.953Z,47.33
2022-10-31T18:36:22.937Z,27.38
2022-10-31T18:38:50.442Z,32.35
2022-10-31T18:41:17.892Z,28.80
2022-10-31T18:43:45.384Z,24.83
2022-10-31T18:46:15.394Z,26.00
2022-10-31T18:48:44.710Z,30.05
2022-10-31T18:51:18.590Z,28.23
2022-10-31T18:53:57.144Z,32.72
2022-10-31T18:56:25.201Z,27.13
2022-10-31T18:58:52.906Z,26.85
2022-10-31T19:01:23.188Z,24.08
2022-10-31T19:03:55.993Z,27.85
2022-10-31T19:06:25.501Z,28.98
2022-10-31T19:08:59.327Z,28.27
2022-10-31T19:11:27.527Z,21.38
2022-10-31T19:13:55.063Z,26.92
2022-10-31T19:16:22.350Z,24.50
2022-10-31T19:18:49.820Z,24.73
2022-10-31T19:21:18.511Z,28.83
2022-10-31T19:23:46.449Z,23.38
2022-10-31T19:26:14.597Z,30.55
2022-10-31T19:28:42.758Z,30.27
2022-10-31T19:31:10.781Z,22.33
2022-10-31T19:33:38.790Z,27.02
2022-10-31T19:36:15.202Z,33.75
2022-10-31T19:38:48.068Z,29.92
2022-10-31T19:41:22.167Z,27.83
2022-10-31T19:43:50.048Z,24.17
2022-10-31T19:46:22.695Z,21.30
2022-10-31T19:49:06.794Z,24.27
2022-10-31T19:51:34.350Z,29.92
2022-10-31T19:54:01.800Z,26.40
2022-10-31T19:56:29.630Z,31.65
2022-10-31T19:59:00.023Z,29.15
2022-10-31T20:01:28.591Z,25.33
2022-10-31T20:03:56.115Z,33.67
2022-10-31T20:06:28.163Z,27.15
2022-10-31T20:08:56.781Z,40.97
2022-10-31T20:11:26.617Z,35.47
2022-10-31T20:13:58.644Z,22.25
2022-10-31T20:16:27.342Z,29.90
2022-10-31T20:18:55.273Z,26.58
2022-10-31T20:21:26.623Z,36.78
2022-10-31T20:24:01.502Z,32.10
2022-10-31T20:26:31.382Z,35.22
2022-10-31T20:29:00.420Z,31.48
2022-10-31T20:31:31.729Z,32.63
2022-10-31T20:33:59.216Z,30.60
2022-10-31T20:36:28.964Z,25.80
2022-10-31T20:38:56.332Z,32.40
2022-10-31T20:41:23.959Z,23.75
2022-10-31T20:43:52.513Z,30.40
2022-10-31T20:46:22.374Z,36.75
2022-10-31T20:48:50.619Z,32.38
2022-10-31T20:51:21.713Z,19.15
2022-10-31T20:53:51.044Z,25.38
2022-10-31T20:56:20.665Z,35.08
2022-10-31T20:58:50.691Z,29.58
2022-10-31T21:01:21.207Z,24.15
2022-10-31T21:03:49.356Z,30.15
2022-10-31T21:06:18.455Z,26.27
2022-10-31T21:08:45.942Z,24.17
2022-10-31T21:11:18.876Z,32.00
2022-10-31T21:13:47.775Z,25.90
2022-10-31T21:16:19.540Z,26.15
2022-10-31T21:18:48.126Z,29.23
2022-10-31T21:21:29.170Z,26.35
2022-10-31T21:24:02.125Z,27.80
2022-10-31T21:26:33.723Z,35.85
2022-10-31T21:29:02.624Z,32.10
2022-10-31T21:31:30.029Z,31.75
2022-10-31T21:33:57.320Z,34.15
2022-10-31T21:36:26.514Z,35.35
2022-10-31T21:38:55.149Z,28.83
2022-10-31T21:41:24.699Z,22.23
2022-10-31T21:43:54.568Z,41.25
2022-10-31T21:46:30.714Z,31.60
2022-10-31T21:48:58.465Z,27.45
2022-10-31T21:51:35.922Z,22.92
2022-10-31T21:54:23.706Z,23.60
2022-10-31T21:56:51.889Z,32.15
2022-10-31T21:59:19.290Z,28.27
2022-10-31T22:01:46.802Z,21.08
2022-10-31T22:04:14.363Z,32.20
2022-10-31T22:06:41.772Z,20.42
2022-10-31T22:09:11.948Z,26.33
2022-10-31T22:11:41.093Z,15.38
2022-10-31T22:14:12.092Z,20.80
2022-10-31T22:16:40.126Z,19.20
2022-10-31T22:19:10.246Z,17.65
2022-10-31T22:21:42.990Z,22.50
2022-10-31T22:24:11.246Z,21.75
2022-10-31T22:26:39.520Z,25.85
2022-10-31T22:29:12.053Z,17.25
2022-10-31T22:31:42.086Z,27.05
2022-10-31T22:34:10.351Z,33.72
2022-10-31T22:36:38.320Z,38.95
2022-10-31T22:39:06.739Z,46.47
2022-10-31T22:41:36.598Z,32.28
2022-10-31T22:44:05.710Z,37.05
2022-10-31T22:46:36.032Z,28.90
2022-10-31T22:49:06.919Z,33.53
2022-10-31T22:51:37.931Z,39.78
2022-10-31T22:54:08.027Z,36.50
2022-10-31T22:56:35.895Z,23.55
2022-10-31T22:59:03.848Z,28.17
2022-10-31T23:01:33.331Z,26.80
2022-10-31T23:04:02.173Z,31.25
2022-10-31T23:06:31.977Z,29.45
2022-10-31T23:09:04.768Z,30.52
2022-10-31T23:11:34.852Z,34.20
2022-10-31T23:14:14.066Z,38.00
2022-10-31T23:17:00.813Z,28.45
2022-10-31T23:19:30.907Z,18.30
2022-10-31T23:22:02.318Z,24.75
2022-10-31T23:24:39.406Z,24.75
2022-10-31T23:27:10.073Z,16.15
2022-10-31T23:29:37.687Z,21.08
2022-10-31T23:32:07.938Z,13.23
2022-10-31T23:34:35.419Z,22.13
2022-10-31T23:37:02.911Z,12.02
2022-10-31T23:39:30.481Z,21.15
2022-10-31T23:42:00.521Z,31.88
2022-10-31T23:44:29.118Z,19.90
2022-10-31T23:46:56.651Z,19.90
2022-10-31T23:49:24.108Z,25.20
2022-10-31T23:51:51.589Z,22.08
2022-10-31T23:54:19.152Z,19.48
2022-10-31T23:56:46.475Z,25.95
2022-10-31T23:59:13.796Z,21.60
